Quick Links (Output Below):   Max & Min Temps   /   Climate Reports   /   Zone Forecasts
River Forecasts   /   Forestry Forecasts   /   Aviation Forecasts   /   Radars   /   Features

Terminal Aerodrome Forecast (El Dorado)

Pick a Site:
Arkadelphia | El Dorado | Fayetteville | Fort Smith | Harrison | Highfill | Hot Springs | Jonesboro
Little Rock | Monticello | Mountain Home | Pine Bluff | Texarkana
 Forecast 

KELD 280521Z 2806/2906 VRB03KT P6SM SKC
     FM281500 23005KT P6SM SKC
     FM281800 20006KT P6SM SCT250
     FM290000 17005KT P6SM SKC=


 Latest METARs (Observations) 
How to Decode METARs
05Z KELD 280453Z AUTO 00000KT 10SM CLR 27/24 A2996 RMK AO2 SLP140
         T02670239
         
04Z KELD 280353Z AUTO 00000KT 10SM CLR 28/24 A2995 RMK AO2 SLP137
         T02830239
         
03Z KELD 280253Z AUTO 00000KT 9SM CLR 28/25 A2994 RMK AO2 SLP133
         T02780250 53014
         
02Z KELD 280153Z AUTO 00000KT 10SM CLR 29/25 A2991 RMK AO2 SLP125
         T02890250
         
01Z KELD 280053Z AUTO 00000KT 10SM CLR 32/24 A2990 RMK AO2 SLP121
         T03170244
         
00Z KELD 272353Z AUTO 17005KT 10SM CLR 35/22 A2990 RMK AO2 SLP119
         T03500222 10367 20339 57008
         
***** Today's Observations (Above) *****


23Z KELD 272253Z AUTO 16006KT 10SM CLR 36/22 A2990 RMK AO2 SLP121
         T03560217
         
22Z KELD 272153Z AUTO 16008KT 10SM CLR 36/21 A2991 RMK AO2 SLP125
         T03610211
         
21Z KELD 272053Z AUTO 13007KT 10SM CLR 37/22 A2992 RMK AO2 SLP126
         T03670217 58014
         
20Z KELD 271953Z AUTO 18006KT 10SM FEW055 36/22 A2994 RMK AO2 SLP132
         T03610222
         
***** Yesterday's Observations (Above) *****


Back to Main Page
http://www.srh.noaa.gov/lzk/qfcst.php

USA.gov is the U.S. government's official web portal to all federal, state and local government web resources and services.